sensor_id;sensor_type;location;lat;lon;timestamp;P1;durP1;ratioP1;P2;durP2;ratioP2
16015;SDS011;8112;53.592;10.184;2023-02-18T00:02:20;15.73;;;4.73;;
16015;SDS011;8112;53.592;10.184;2023-02-18T00:07:22;14.20;;;3.33;;
16015;SDS011;8112;53.592;10.184;2023-02-18T00:12:26;15.37;;;2.97;;
16015;SDS011;8112;53.592;10.184;2023-02-18T00:17:29;17.43;;;4.13;;
16015;SDS011;8112;53.592;10.184;2023-02-18T00:22:31;15.10;;;3.33;;
16015;SDS011;8112;53.592;10.184;2023-02-18T00:27:34;16.80;;;3.90;;
16015;SDS011;8112;53.592;10.184;2023-02-18T00:32:36;17.07;;;3.30;;
16015;SDS011;8112;53.592;10.184;2023-02-18T00:37:38;18.67;;;4.17;;
16015;SDS011;8112;53.592;10.184;2023-02-18T00:42:42;19.60;;;3.53;;
16015;SDS011;8112;53.592;10.184;2023-02-18T00:47:43;13.93;;;4.00;;
16015;SDS011;8112;53.592;10.184;2023-02-18T00:52:45;21.17;;;3.47;;
16015;SDS011;8112;53.592;10.184;2023-02-18T00:57:49;16.13;;;3.57;;
16015;SDS011;8112;53.592;10.184;2023-02-18T01:02:51;12.70;;;3.43;;
16015;SDS011;8112;53.592;10.184;2023-02-18T01:07:55;18.33;;;4.37;;
16015;SDS011;8112;53.592;10.184;2023-02-18T01:12:59;25.23;;;4.03;;
16015;SDS011;8112;53.592;10.184;2023-02-18T01:18:03;21.27;;;3.30;;
16015;SDS011;8112;53.592;10.184;2023-02-18T01:23:07;21.00;;;4.00;;
16015;SDS011;8112;53.592;10.184;2023-02-18T01:28:12;16.33;;;3.97;;
16015;SDS011;8112;53.592;10.184;2023-02-18T01:33:15;14.47;;;3.40;;
16015;SDS011;8112;53.592;10.184;2023-02-18T01:38:17;18.30;;;4.80;;
16015;SDS011;8112;53.592;10.184;2023-02-18T01:43:22;16.27;;;3.30;;
16015;SDS011;8112;53.592;10.184;2023-02-18T01:48:25;17.97;;;3.97;;
16015;SDS011;8112;53.592;10.184;2023-02-18T01:53:31;18.03;;;3.30;;
16015;SDS011;8112;53.592;10.184;2023-02-18T01:58:41;21.53;;;4.57;;
16015;SDS011;8112;53.592;10.184;2023-02-18T02:03:44;17.00;;;4.20;;
16015;SDS011;8112;53.592;10.184;2023-02-18T02:08:48;17.03;;;3.57;;
16015;SDS011;8112;53.592;10.184;2023-02-18T02:19:28;10.43;;;2.97;;
16015;SDS011;8112;53.592;10.184;2023-02-18T02:24:54;19.00;;;4.20;;
16015;SDS011;8112;53.592;10.184;2023-02-18T02:35:42;12.27;;;3.30;;
16015;SDS011;8112;53.592;10.184;2023-02-18T02:40:51;11.90;;;3.30;;
16015;SDS011;8112;53.592;10.184;2023-02-18T02:46:00;18.87;;;3.57;;
16015;SDS011;8112;53.592;10.184;2023-02-18T02:51:09;12.07;;;3.00;;
16015;SDS011;8112;53.592;10.184;2023-02-18T02:56:19;17.70;;;3.93;;
16015;SDS011;8112;53.592;10.184;2023-02-18T03:01:29;12.80;;;3.23;;
16015;SDS011;8112;53.592;10.184;2023-02-18T03:12:14;15.53;;;3.60;;
16015;SDS011;8112;53.592;10.184;2023-02-18T03:17:22;15.00;;;2.67;;
16015;SDS011;8112;53.592;10.184;2023-02-18T03:22:32;17.37;;;2.83;;
16015;SDS011;8112;53.592;10.184;2023-02-18T03:27:44;10.07;;;3.03;;
16015;SDS011;8112;53.592;10.184;2023-02-18T03:32:52;12.63;;;3.57;;
16015;SDS011;8112;53.592;10.184;2023-02-18T03:38:00;10.43;;;3.17;;
16015;SDS011;8112;53.592;10.184;2023-02-18T03:43:09;13.03;;;3.00;;
16015;SDS011;8112;53.592;10.184;2023-02-18T03:48:22;9.20;;;2.60;;
16015;SDS011;8112;53.592;10.184;2023-02-18T03:53:25;16.93;;;4.73;;
16015;SDS011;8112;53.592;10.184;2023-02-18T03:58:31;12.27;;;2.50;;
16015;SDS011;8112;53.592;10.184;2023-02-18T04:03:33;9.83;;;2.83;;
16015;SDS011;8112;53.592;10.184;2023-02-18T04:08:35;12.27;;;3.30;;
16015;SDS011;8112;53.592;10.184;2023-02-18T04:13:40;9.40;;;2.43;;
16015;SDS011;8112;53.592;10.184;2023-02-18T04:18:42;12.53;;;2.57;;
16015;SDS011;8112;53.592;10.184;2023-02-18T04:23:44;7.90;;;2.37;;
16015;SDS011;8112;53.592;10.184;2023-02-18T04:28:48;15.40;;;2.90;;
16015;SDS011;8112;53.592;10.184;2023-02-18T04:33:50;10.00;;;2.10;;
16015;SDS011;8112;53.592;10.184;2023-02-18T04:38:52;9.13;;;2.33;;
16015;SDS011;8112;53.592;10.184;2023-02-18T04:43:56;9.40;;;2.63;;
16015;SDS011;8112;53.592;10.184;2023-02-18T04:48:58;7.57;;;3.00;;
16015;SDS011;8112;53.592;10.184;2023-02-18T04:54:00;10.57;;;3.13;;
16015;SDS011;8112;53.592;10.184;2023-02-18T04:59:10;10.40;;;2.50;;
16015;SDS011;8112;53.592;10.184;2023-02-18T05:04:12;13.10;;;3.00;;
16015;SDS011;8112;53.592;10.184;2023-02-18T05:09:16;9.33;;;2.37;;
16015;SDS011;8112;53.592;10.184;2023-02-18T05:14:20;5.73;;;1.93;;
16015;SDS011;8112;53.592;10.184;2023-02-18T05:19:21;11.73;;;2.27;;
16015;SDS011;8112;53.592;10.184;2023-02-18T05:24:23;7.57;;;2.63;;
16015;SDS011;8112;53.592;10.184;2023-02-18T05:29:27;17.00;;;2.63;;
16015;SDS011;8112;53.592;10.184;2023-02-18T05:34:29;11.03;;;3.13;;
16015;SDS011;8112;53.592;10.184;2023-02-18T05:39:31;8.30;;;2.50;;
16015;SDS011;8112;53.592;10.184;2023-02-18T05:44:34;6.30;;;2.27;;
16015;SDS011;8112;53.592;10.184;2023-02-18T05:49:37;8.70;;;2.47;;
16015;SDS011;8112;53.592;10.184;2023-02-18T05:54:39;9.77;;;2.97;;
16015;SDS011;8112;53.592;10.184;2023-02-18T05:59:43;12.23;;;2.93;;
16015;SDS011;8112;53.592;10.184;2023-02-18T06:04:45;8.83;;;2.60;;
16015;SDS011;8112;53.592;10.184;2023-02-18T06:09:48;7.20;;;2.10;;
16015;SDS011;8112;53.592;10.184;2023-02-18T06:14:52;6.17;;;2.47;;
16015;SDS011;8112;53.592;10.184;2023-02-18T06:19:54;8.23;;;2.57;;
16015;SDS011;8112;53.592;10.184;2023-02-18T06:24:56;6.23;;;2.23;;
16015;SDS011;8112;53.592;10.184;2023-02-18T06:29:59;4.70;;;2.10;;
16015;SDS011;8112;53.592;10.184;2023-02-18T06:35:02;8.73;;;2.40;;
16015;SDS011;8112;53.592;10.184;2023-02-18T06:40:04;13.97;;;1.93;;
16015;SDS011;8112;53.592;10.184;2023-02-18T06:45:10;9.47;;;2.03;;
16015;SDS011;8112;53.592;10.184;2023-02-18T06:50:11;9.47;;;2.27;;
16015;SDS011;8112;53.592;10.184;2023-02-18T06:55:14;6.37;;;1.80;;
16015;SDS011;8112;53.592;10.184;2023-02-18T07:00:18;9.67;;;1.93;;
16015;SDS011;8112;53.592;10.184;2023-02-18T07:05:21;6.40;;;1.97;;
16015;SDS011;8112;53.592;10.184;2023-02-18T07:10:23;7.30;;;2.23;;
16015;SDS011;8112;53.592;10.184;2023-02-18T07:15:27;5.50;;;1.67;;
16015;SDS011;8112;53.592;10.184;2023-02-18T07:20:29;5.97;;;1.73;;
16015;SDS011;8112;53.592;10.184;2023-02-18T07:25:32;8.17;;;2.07;;
16015;SDS011;8112;53.592;10.184;2023-02-18T07:30:37;3.83;;;2.13;;
16015;SDS011;8112;53.592;10.184;2023-02-18T07:35:38;8.27;;;2.27;;
16015;SDS011;8112;53.592;10.184;2023-02-18T07:40:41;9.87;;;2.70;;
16015;SDS011;8112;53.592;10.184;2023-02-18T07:45:48;3.67;;;1.90;;
16015;SDS011;8112;53.592;10.184;2023-02-18T07:50:49;4.30;;;1.73;;
16015;SDS011;8112;53.592;10.184;2023-02-18T07:55:51;3.80;;;2.13;;
16015;SDS011;8112;53.592;10.184;2023-02-18T08:00:55;6.97;;;2.90;;
16015;SDS011;8112;53.592;10.184;2023-02-18T08:05:59;6.87;;;2.23;;
16015;SDS011;8112;53.592;10.184;2023-02-18T08:11:01;5.60;;;2.97;;
16015;SDS011;8112;53.592;10.184;2023-02-18T08:16:07;7.23;;;2.97;;
16015;SDS011;8112;53.592;10.184;2023-02-18T08:21:10;8.67;;;2.77;;
16015;SDS011;8112;53.592;10.184;2023-02-18T08:26:12;2.63;;;2.10;;
16015;SDS011;8112;53.592;10.184;2023-02-18T08:31:20;8.07;;;2.83;;
16015;SDS011;8112;53.592;10.184;2023-02-18T08:36:24;5.47;;;2.20;;
16015;SDS011;8112;53.592;10.184;2023-02-18T08:41:25;7.63;;;2.80;;
16015;SDS011;8112;53.592;10.184;2023-02-18T08:46:29;6.87;;;2.83;;
16015;SDS011;8112;53.592;10.184;2023-02-18T08:51:31;8.57;;;3.30;;
16015;SDS011;8112;53.592;10.184;2023-02-18T08:56:33;7.73;;;2.40;;
16015;SDS011;8112;53.592;10.184;2023-02-18T09:01:36;4.93;;;2.60;;
16015;SDS011;8112;53.592;10.184;2023-02-18T09:06:38;6.30;;;2.97;;
16015;SDS011;8112;53.592;10.184;2023-02-18T09:11:40;12.40;;;2.80;;
16015;SDS011;8112;53.592;10.184;2023-02-18T09:16:43;6.97;;;2.20;;
16015;SDS011;8112;53.592;10.184;2023-02-18T09:21:45;7.33;;;2.87;;
16015;SDS011;8112;53.592;10.184;2023-02-18T09:26:47;6.33;;;3.10;;
16015;SDS011;8112;53.592;10.184;2023-02-18T09:31:51;5.63;;;2.47;;
16015;SDS011;8112;53.592;10.184;2023-02-18T09:36:52;9.27;;;3.30;;
16015;SDS011;8112;53.592;10.184;2023-02-18T09:41:56;5.70;;;2.87;;
16015;SDS011;8112;53.592;10.184;2023-02-18T09:47:01;5.80;;;2.97;;
16015;SDS011;8112;53.592;10.184;2023-02-18T09:52:06;5.80;;;2.93;;
16015;SDS011;8112;53.592;10.184;2023-02-18T09:57:17;4.97;;;2.53;;
16015;SDS011;8112;53.592;10.184;2023-02-18T10:02:32;6.50;;;3.23;;
16015;SDS011;8112;53.592;10.184;2023-02-18T10:07:35;3.83;;;2.97;;
16015;SDS011;8112;53.592;10.184;2023-02-18T10:12:40;4.60;;;3.00;;
16015;SDS011;8112;53.592;10.184;2023-02-18T10:17:45;5.83;;;4.20;;
16015;SDS011;8112;53.592;10.184;2023-02-18T10:22:49;6.73;;;4.63;;
16015;SDS011;8112;53.592;10.184;2023-02-18T10:27:53;5.47;;;4.00;;
16015;SDS011;8112;53.592;10.184;2023-02-18T10:32:59;4.10;;;3.70;;
16015;SDS011;8112;53.592;10.184;2023-02-18T10:38:19;6.00;;;3.70;;
16015;SDS011;8112;53.592;10.184;2023-02-18T10:43:35;3.43;;;3.00;;
16015;SDS011;8112;53.592;10.184;2023-02-18T10:49:06;4.50;;;3.00;;
16015;SDS011;8112;53.592;10.184;2023-02-18T10:54:16;3.87;;;2.67;;
16015;SDS011;8112;53.592;10.184;2023-02-18T10:59:21;3.30;;;3.00;;
16015;SDS011;8112;53.592;10.184;2023-02-18T11:04:26;3.73;;;3.30;;
16015;SDS011;8112;53.592;10.184;2023-02-18T11:09:38;4.03;;;3.10;;
16015;SDS011;8112;53.592;10.184;2023-02-18T11:14:43;2.93;;;2.63;;
16015;SDS011;8112;53.592;10.184;2023-02-18T11:19:52;2.90;;;2.60;;
16015;SDS011;8112;53.592;10.184;2023-02-18T11:24:56;4.47;;;4.03;;
16015;SDS011;8112;53.592;10.184;2023-02-18T11:30:00;3.67;;;3.30;;
16015;SDS011;8112;53.592;10.184;2023-02-18T11:35:06;3.30;;;2.90;;
16015;SDS011;8112;53.592;10.184;2023-02-18T11:40:20;3.60;;;3.30;;
16015;SDS011;8112;53.592;10.184;2023-02-18T11:45:25;2.70;;;2.50;;
16015;SDS011;8112;53.592;10.184;2023-02-18T11:50:31;3.03;;;2.77;;
16015;SDS011;8112;53.592;10.184;2023-02-18T11:55:33;3.63;;;3.33;;
16015;SDS011;8112;53.592;10.184;2023-02-18T12:00:38;5.63;;;4.23;;
16015;SDS011;8112;53.592;10.184;2023-02-18T12:05:44;5.23;;;4.73;;
16015;SDS011;8112;53.592;10.184;2023-02-18T12:10:46;6.17;;;5.47;;
16015;SDS011;8112;53.592;10.184;2023-02-18T12:15:52;7.03;;;5.00;;
16015;SDS011;8112;53.592;10.184;2023-02-18T12:21:09;4.37;;;3.93;;
16015;SDS011;8112;53.592;10.184;2023-02-18T12:26:28;5.00;;;3.10;;
16015;SDS011;8112;53.592;10.184;2023-02-18T12:31:41;1.80;;;1.63;;
16015;SDS011;8112;53.592;10.184;2023-02-18T12:36:55;0.93;;;0.90;;
16015;SDS011;8112;53.592;10.184;2023-02-18T12:47:38;3.33;;;1.30;;
16015;SDS011;8112;53.592;10.184;2023-02-18T12:52:58;1.90;;;1.27;;
16015;SDS011;8112;53.592;10.184;2023-02-18T12:58:18;2.90;;;1.70;;
16015;SDS011;8112;53.592;10.184;2023-02-18T13:09:13;7.13;;;1.67;;
16015;SDS011;8112;53.592;10.184;2023-02-18T13:14:23;4.87;;;1.70;;
16015;SDS011;8112;53.592;10.184;2023-02-18T13:19:29;5.00;;;2.00;;
16015;SDS011;8112;53.592;10.184;2023-02-18T13:24:36;5.30;;;2.00;;
16015;SDS011;8112;53.592;10.184;2023-02-18T13:29:41;6.73;;;2.13;;
16015;SDS011;8112;53.592;10.184;2023-02-18T13:34:49;6.43;;;2.20;;
16015;SDS011;8112;53.592;10.184;2023-02-18T13:40:00;6.83;;;2.10;;
16015;SDS011;8112;53.592;10.184;2023-02-18T13:50:40;6.57;;;2.33;;
16015;SDS011;8112;53.592;10.184;2023-02-18T13:55:47;6.87;;;2.60;;
16015;SDS011;8112;53.592;10.184;2023-02-18T14:00:55;5.97;;;2.00;;
16015;SDS011;8112;53.592;10.184;2023-02-18T14:06:04;3.97;;;2.30;;
16015;SDS011;8112;53.592;10.184;2023-02-18T14:22:23;2.33;;;1.83;;
16015;SDS011;8112;53.592;10.184;2023-02-18T14:27:32;2.47;;;2.20;;
16015;SDS011;8112;53.592;10.184;2023-02-18T14:32:35;3.93;;;2.60;;
16015;SDS011;8112;53.592;10.184;2023-02-18T14:37:45;5.87;;;4.73;;
16015;SDS011;8112;53.592;10.184;2023-02-18T14:43:12;3.47;;;2.33;;
16015;SDS011;8112;53.592;10.184;2023-02-18T14:48:34;2.43;;;2.23;;
16015;SDS011;8112;53.592;10.184;2023-02-18T14:53:43;2.20;;;2.00;;
16015;SDS011;8112;53.592;10.184;2023-02-18T14:58:48;1.93;;;1.77;;
16015;SDS011;8112;53.592;10.184;2023-02-18T15:03:54;2.00;;;1.83;;
16015;SDS011;8112;53.592;10.184;2023-02-18T15:08:57;2.43;;;2.23;;
16015;SDS011;8112;53.592;10.184;2023-02-18T15:14:01;2.60;;;1.90;;
16015;SDS011;8112;53.592;10.184;2023-02-18T15:19:11;2.77;;;2.33;;
16015;SDS011;8112;53.592;10.184;2023-02-18T15:24:20;1.90;;;1.80;;
16015;SDS011;8112;53.592;10.184;2023-02-18T15:29:28;2.10;;;1.70;;
16015;SDS011;8112;53.592;10.184;2023-02-18T15:34:34;2.20;;;2.00;;
16015;SDS011;8112;53.592;10.184;2023-02-18T15:39:37;2.70;;;2.40;;
16015;SDS011;8112;53.592;10.184;2023-02-18T15:44:44;1.50;;;1.40;;
16015;SDS011;8112;53.592;10.184;2023-02-18T15:49:49;1.93;;;1.70;;
16015;SDS011;8112;53.592;10.184;2023-02-18T15:54:54;1.90;;;1.60;;
16015;SDS011;8112;53.592;10.184;2023-02-18T16:00:04;2.17;;;1.70;;
16015;SDS011;8112;53.592;10.184;2023-02-18T16:05:13;1.90;;;1.80;;
16015;SDS011;8112;53.592;10.184;2023-02-18T16:10:18;1.97;;;1.80;;
16015;SDS011;8112;53.592;10.184;2023-02-18T16:15:24;2.10;;;1.90;;
16015;SDS011;8112;53.592;10.184;2023-02-18T16:20:30;3.03;;;2.40;;
16015;SDS011;8112;53.592;10.184;2023-02-18T16:25:35;2.63;;;2.10;;
16015;SDS011;8112;53.592;10.184;2023-02-18T16:30:44;2.17;;;2.00;;
16015;SDS011;8112;53.592;10.184;2023-02-18T16:35:46;2.60;;;2.40;;
16015;SDS011;8112;53.592;10.184;2023-02-18T16:40:49;3.10;;;2.47;;
16015;SDS011;8112;53.592;10.184;2023-02-18T16:45:54;2.77;;;2.50;;
16015;SDS011;8112;53.592;10.184;2023-02-18T16:50:58;3.03;;;2.73;;
16015;SDS011;8112;53.592;10.184;2023-02-18T16:56:02;7.97;;;4.97;;
16015;SDS011;8112;53.592;10.184;2023-02-18T17:01:07;4.40;;;4.00;;
16015;SDS011;8112;53.592;10.184;2023-02-18T17:06:19;4.80;;;4.10;;
16015;SDS011;8112;53.592;10.184;2023-02-18T17:11:22;5.37;;;4.60;;
16015;SDS011;8112;53.592;10.184;2023-02-18T17:16:28;5.00;;;4.50;;
16015;SDS011;8112;53.592;10.184;2023-02-18T17:21:30;5.00;;;4.50;;
16015;SDS011;8112;53.592;10.184;2023-02-18T17:26:32;9.97;;;8.23;;
16015;SDS011;8112;53.592;10.184;2023-02-18T17:31:36;6.67;;;5.73;;
16015;SDS011;8112;53.592;10.184;2023-02-18T17:36:40;6.20;;;5.60;;
16015;SDS011;8112;53.592;10.184;2023-02-18T17:41:44;7.63;;;6.67;;
16015;SDS011;8112;53.592;10.184;2023-02-18T17:46:48;6.67;;;5.53;;
16015;SDS011;8112;53.592;10.184;2023-02-18T17:51:51;6.00;;;5.17;;
16015;SDS011;8112;53.592;10.184;2023-02-18T17:56:53;7.80;;;5.80;;
16015;SDS011;8112;53.592;10.184;2023-02-18T18:01:57;7.57;;;6.30;;
16015;SDS011;8112;53.592;10.184;2023-02-18T18:06:59;8.30;;;7.00;;
16015;SDS011;8112;53.592;10.184;2023-02-18T18:12:01;10.33;;;7.87;;
16015;SDS011;8112;53.592;10.184;2023-02-18T18:17:05;9.90;;;8.03;;
16015;SDS011;8112;53.592;10.184;2023-02-18T18:22:11;13.10;;;9.93;;
16015;SDS011;8112;53.592;10.184;2023-02-18T18:27:13;11.57;;;9.70;;
16015;SDS011;8112;53.592;10.184;2023-02-18T18:32:16;13.80;;;9.27;;
16015;SDS011;8112;53.592;10.184;2023-02-18T18:37:18;14.83;;;10.00;;
16015;SDS011;8112;53.592;10.184;2023-02-18T18:42:23;14.10;;;9.87;;
16015;SDS011;8112;53.592;10.184;2023-02-18T18:47:26;15.50;;;10.93;;
16015;SDS011;8112;53.592;10.184;2023-02-18T18:52:28;17.40;;;12.03;;
16015;SDS011;8112;53.592;10.184;2023-02-18T18:57:30;17.23;;;11.50;;
16015;SDS011;8112;53.592;10.184;2023-02-18T19:02:36;15.23;;;11.97;;
16015;SDS011;8112;53.592;10.184;2023-02-18T19:07:40;17.37;;;12.87;;
16015;SDS011;8112;53.592;10.184;2023-02-18T19:12:42;19.73;;;13.27;;
16015;SDS011;8112;53.592;10.184;2023-02-18T19:17:46;19.23;;;14.07;;
16015;SDS011;8112;53.592;10.184;2023-02-18T19:22:52;19.87;;;13.77;;
16015;SDS011;8112;53.592;10.184;2023-02-18T19:27:54;20.57;;;14.27;;
16015;SDS011;8112;53.592;10.184;2023-02-18T19:33:02;19.70;;;13.80;;
16015;SDS011;8112;53.592;10.184;2023-02-18T19:38:06;20.33;;;15.27;;
16015;SDS011;8112;53.592;10.184;2023-02-18T19:43:09;21.10;;;14.63;;
16015;SDS011;8112;53.592;10.184;2023-02-18T19:48:14;21.23;;;14.50;;
16015;SDS011;8112;53.592;10.184;2023-02-18T19:53:16;25.73;;;17.43;;
16015;SDS011;8112;53.592;10.184;2023-02-18T19:58:18;24.07;;;17.30;;
16015;SDS011;8112;53.592;10.184;2023-02-18T20:03:22;27.50;;;18.27;;
16015;SDS011;8112;53.592;10.184;2023-02-18T20:08:24;21.53;;;15.70;;
16015;SDS011;8112;53.592;10.184;2023-02-18T20:13:26;23.60;;;15.87;;
16015;SDS011;8112;53.592;10.184;2023-02-18T20:18:29;22.43;;;15.93;;
16015;SDS011;8112;53.592;10.184;2023-02-18T20:23:32;23.17;;;15.30;;
16015;SDS011;8112;53.592;10.184;2023-02-18T20:28:34;19.80;;;14.23;;
16015;SDS011;8112;53.592;10.184;2023-02-18T20:33:37;19.97;;;14.87;;
16015;SDS011;8112;53.592;10.184;2023-02-18T20:38:41;18.87;;;14.13;;
16015;SDS011;8112;53.592;10.184;2023-02-18T20:43:43;20.20;;;14.63;;
16015;SDS011;8112;53.592;10.184;2023-02-18T20:48:48;19.60;;;14.17;;
16015;SDS011;8112;53.592;10.184;2023-02-18T20:53:50;16.63;;;12.97;;
16015;SDS011;8112;53.592;10.184;2023-02-18T20:58:52;17.23;;;12.70;;
16015;SDS011;8112;53.592;10.184;2023-02-18T21:03:56;18.77;;;13.80;;
16015;SDS011;8112;53.592;10.184;2023-02-18T21:08:58;17.10;;;13.13;;
16015;SDS011;8112;53.592;10.184;2023-02-18T21:14:00;18.00;;;13.60;;
16015;SDS011;8112;53.592;10.184;2023-02-18T21:19:05;15.23;;;12.40;;
16015;SDS011;8112;53.592;10.184;2023-02-18T21:24:08;15.70;;;12.03;;
16015;SDS011;8112;53.592;10.184;2023-02-18T21:29:11;16.73;;;12.67;;
16015;SDS011;8112;53.592;10.184;2023-02-18T21:34:16;13.33;;;11.43;;
16015;SDS011;8112;53.592;10.184;2023-02-18T21:39:18;14.43;;;11.10;;
16015;SDS011;8112;53.592;10.184;2023-02-18T21:44:20;14.10;;;11.00;;
16015;SDS011;8112;53.592;10.184;2023-02-18T21:49:23;12.63;;;10.90;;
16015;SDS011;8112;53.592;10.184;2023-02-18T21:54:26;16.97;;;12.10;;
16015;SDS011;8112;53.592;10.184;2023-02-18T21:59:29;16.10;;;11.57;;
16015;SDS011;8112;53.592;10.184;2023-02-18T22:04:35;15.50;;;11.03;;
16015;SDS011;8112;53.592;10.184;2023-02-18T22:09:38;14.33;;;10.43;;
16015;SDS011;8112;53.592;10.184;2023-02-18T22:14:40;12.80;;;9.93;;
16015;SDS011;8112;53.592;10.184;2023-02-18T22:19:44;14.23;;;10.13;;
16015;SDS011;8112;53.592;10.184;2023-02-18T22:24:46;14.37;;;10.73;;
16015;SDS011;8112;53.592;10.184;2023-02-18T22:29:50;17.43;;;10.57;;
16015;SDS011;8112;53.592;10.184;2023-02-18T22:34:55;13.57;;;10.43;;
16015;SDS011;8112;53.592;10.184;2023-02-18T22:39:57;18.23;;;10.00;;
16015;SDS011;8112;53.592;10.184;2023-02-18T22:44:59;11.80;;;9.37;;
16015;SDS011;8112;53.592;10.184;2023-02-18T22:50:06;15.63;;;10.33;;
16015;SDS011;8112;53.592;10.184;2023-02-18T22:55:10;15.00;;;10.33;;
16015;SDS011;8112;53.592;10.184;2023-02-18T23:00:13;12.53;;;9.83;;
16015;SDS011;8112;53.592;10.184;2023-02-18T23:05:17;11.73;;;8.97;;
16015;SDS011;8112;53.592;10.184;2023-02-18T23:10:19;11.60;;;8.77;;
16015;SDS011;8112;53.592;10.184;2023-02-18T23:15:21;12.27;;;8.50;;
16015;SDS011;8112;53.592;10.184;2023-02-18T23:20:25;14.90;;;9.33;;
16015;SDS011;8112;53.592;10.184;2023-02-18T23:25:40;16.00;;;9.33;;
16015;SDS011;8112;53.592;10.184;2023-02-18T23:30:43;13.47;;;8.67;;
16015;SDS011;8112;53.592;10.184;2023-02-18T23:35:46;9.70;;;7.77;;
16015;SDS011;8112;53.592;10.184;2023-02-18T23:40:49;11.50;;;7.40;;
16015;SDS011;8112;53.592;10.184;2023-02-18T23:45:52;11.83;;;7.77;;
16015;SDS011;8112;53.592;10.184;2023-02-18T23:50:59;11.73;;;8.00;;
16015;SDS011;8112;53.592;10.184;2023-02-18T23:56:03;11.37;;;7.67;;
